Aeroporto :
LOGIN :

Iscrizione | Disclaimer

   EN    FR    IT 

 










Sommario :    VFR   VFR Marginale   IFR   IFR Intensivo   IFR Molto Intensivo
Visibilità : 
Base nubi : 
>= 8 km
>= 3000ft
5 / 8 km
1000 / 3000 ft
1500m / 5 km
500 / 1000 ft
800 / 1500m
200 / 500 ft
< 800m
< 200 ft
Simboli :   Temporali  Nebbia  Neve Forte  Precipitazioni Forti  Vento > 20 kt
SIGMETs :   Varie  Temporali  Ghiacco  Turbolenza  Onda orograficha  Ceneri Vulcaniche






- Altitudine del aeroporto : 46 ft
- Codice IATA : SNN


EINN - Shannon

ULTIMO METAR :
  • 191800Z 04010KT 9999 FEW030 15/10 Q1020 NOSIG

METARs OBSOLETI :
  • 191730Z 03010KT 9999 FEW030 16/11 Q1020 NOSIG
  • 191700Z 03012KT 9999 FEW030 17/11 Q1020 NOSIG
  • 191630Z 03012KT 9999 FEW030 17/11 Q1019 NOSIG
  • 191600Z 04011KT 9999 FEW030 18/11 Q1019 NOSIG
  • 191530Z 03013KT 9999 BKN030 17/11 Q1020 NOSIG

TAF TAF EINN
Valido dal 19 a 18 ore il 20 a 18 ore UTC


191700Z 1918/2018 04012KT 9999 FEW030
BECMG 1920/1922 01007KT
TEMPO 2004/2008 3000 BR BKN004
TEMPO 2008/2010 BKN010
BECMG 2009/2011 04008KT



MetMap, La meteo Aeronautica in un colpo d'occhio ! - Copyright ORBIFLY Dicembre 2007 - Disclaimer

ORBIFLY MET'MAP TEAM :

Programmazione e sviluppo : Alexandra Zaïnal
Concezione : Baudouin d'Aumeries
Aiuto per la programmazione : Marc-Olivier Méhu
Supporto tecnico e logistico : Manuel Goepfert
Aiuto per la traduzione : Arnaldo La Scala

Contatto : metmap@orbifly.com




FONTI E CREDITI :

   NOAA